Naha, Japan
Current Conditions -  °F | °C
As of 12:00 AM on Friday 31 Oct 2014 (Local Time) from ROAH Reporting Station
Broken Clouds Broken Clouds  
Wind Chill: 77°   Ceiling: 3500
Heat Index: 79°   Visibility: 6mi
Dew Point: 68°   Wind: 13mph
Humidity: 74%   Direction: 70°ENE
Pressure: 30"   Gusts: NA
Location:  26.21°N, 127.7°E
Report Text: ROAH 301500Z 07011KT 9999 FEW017 BKN035 25/20 Q1016
Loading
Personal Weather Stations






























Interactive Weather Map
Tropical Storm Tracking
New forecast layout! Learn more

10-Day Weather Forecast

Advertisements
Track Severe Weather on mobile